sensor_id;sensor_type;location;lat;lon;timestamp;P1;durP1;ratioP1;P2;durP2;ratioP2
31390;SDS011;18022;45.492;11.548;2023-11-19T00:00:46;24.08;;;17.23;;
31390;SDS011;18022;45.492;11.548;2023-11-19T00:03:12;26.38;;;18.33;;
31390;SDS011;18022;45.492;11.548;2023-11-19T00:05:38;23.58;;;17.77;;
31390;SDS011;18022;45.492;11.548;2023-11-19T00:08:04;26.98;;;19.55;;
31390;SDS011;18022;45.492;11.548;2023-11-19T00:10:31;27.42;;;19.77;;
31390;SDS011;18022;45.492;11.548;2023-11-19T00:12:56;24.20;;;17.13;;
31390;SDS011;18022;45.492;11.548;2023-11-19T00:15:22;24.40;;;17.00;;
31390;SDS011;18022;45.492;11.548;2023-11-19T00:17:49;22.45;;;15.80;;
31390;SDS011;18022;45.492;11.548;2023-11-19T00:20:15;21.67;;;16.48;;
31390;SDS011;18022;45.492;11.548;2023-11-19T00:22:42;24.77;;;16.50;;
31390;SDS011;18022;45.492;11.548;2023-11-19T00:25:08;27.00;;;17.85;;
31390;SDS011;18022;45.492;11.548;2023-11-19T00:27:35;20.58;;;15.65;;
31390;SDS011;18022;45.492;11.548;2023-11-19T00:30:02;21.85;;;16.30;;
31390;SDS011;18022;45.492;11.548;2023-11-19T00:32:30;21.92;;;15.82;;
31390;SDS011;18022;45.492;11.548;2023-11-19T00:34:57;26.93;;;17.80;;
31390;SDS011;18022;45.492;11.548;2023-11-19T00:37:23;24.00;;;16.45;;
31390;SDS011;18022;45.492;11.548;2023-11-19T00:39:48;24.17;;;16.95;;
31390;SDS011;18022;45.492;11.548;2023-11-19T00:42:14;23.38;;;16.25;;
31390;SDS011;18022;45.492;11.548;2023-11-19T00:44:40;26.55;;;17.15;;
31390;SDS011;18022;45.492;11.548;2023-11-19T00:47:06;23.65;;;17.63;;
31390;SDS011;18022;45.492;11.548;2023-11-19T00:49:32;23.45;;;16.67;;
31390;SDS011;18022;45.492;11.548;2023-11-19T00:51:58;22.20;;;16.02;;
31390;SDS011;18022;45.492;11.548;2023-11-19T00:54:24;20.73;;;16.08;;
31390;SDS011;18022;45.492;11.548;2023-11-19T00:56:53;23.38;;;17.10;;
31390;SDS011;18022;45.492;11.548;2023-11-19T00:59:20;23.70;;;16.90;;
31390;SDS011;18022;45.492;11.548;2023-11-19T01:01:45;24.48;;;16.00;;
31390;SDS011;18022;45.492;11.548;2023-11-19T01:04:13;24.65;;;17.80;;
31390;SDS011;18022;45.492;11.548;2023-11-19T01:06:39;23.48;;;15.60;;
31390;SDS011;18022;45.492;11.548;2023-11-19T01:09:07;21.27;;;16.20;;
31390;SDS011;18022;45.492;11.548;2023-11-19T01:11:33;20.17;;;15.77;;
31390;SDS011;18022;45.492;11.548;2023-11-19T01:13:59;23.30;;;16.38;;
31390;SDS011;18022;45.492;11.548;2023-11-19T01:16:25;24.15;;;16.88;;
31390;SDS011;18022;45.492;11.548;2023-11-19T01:18:51;21.15;;;16.80;;
31390;SDS011;18022;45.492;11.548;2023-11-19T01:21:17;21.13;;;15.48;;
31390;SDS011;18022;45.492;11.548;2023-11-19T01:23:43;19.42;;;15.45;;
31390;SDS011;18022;45.492;11.548;2023-11-19T01:26:09;19.35;;;15.05;;
31390;SDS011;18022;45.492;11.548;2023-11-19T01:28:37;25.17;;;16.52;;
31390;SDS011;18022;45.492;11.548;2023-11-19T01:31:04;19.38;;;15.18;;
31390;SDS011;18022;45.492;11.548;2023-11-19T01:33:31;22.27;;;16.05;;
31390;SDS011;18022;45.492;11.548;2023-11-19T01:35:57;23.45;;;16.90;;
31390;SDS011;18022;45.492;11.548;2023-11-19T01:38:24;20.42;;;15.50;;
31390;SDS011;18022;45.492;11.548;2023-11-19T01:40:50;21.88;;;16.08;;
31390;SDS011;18022;45.492;11.548;2023-11-19T01:43:37;23.33;;;16.30;;
31390;SDS011;18022;45.492;11.548;2023-11-19T01:46:06;24.73;;;16.00;;
31390;SDS011;18022;45.492;11.548;2023-11-19T01:48:34;22.98;;;16.77;;
31390;SDS011;18022;45.492;11.548;2023-11-19T01:51:02;24.00;;;16.48;;
31390;SDS011;18022;45.492;11.548;2023-11-19T01:53:29;23.98;;;16.92;;
31390;SDS011;18022;45.492;11.548;2023-11-19T01:55:56;22.48;;;16.38;;
31390;SDS011;18022;45.492;11.548;2023-11-19T01:58:23;24.17;;;15.48;;
31390;SDS011;18022;45.492;11.548;2023-11-19T02:00:49;21.33;;;15.77;;
31390;SDS011;18022;45.492;11.548;2023-11-19T02:03:14;23.67;;;16.15;;
31390;SDS011;18022;45.492;11.548;2023-11-19T02:05:41;21.70;;;16.05;;
31390;SDS011;18022;45.492;11.548;2023-11-19T02:08:07;25.58;;;16.60;;
31390;SDS011;18022;45.492;11.548;2023-11-19T02:10:33;23.65;;;16.55;;
31390;SDS011;18022;45.492;11.548;2023-11-19T02:12:59;22.58;;;16.60;;
31390;SDS011;18022;45.492;11.548;2023-11-19T02:15:25;22.70;;;16.33;;
31390;SDS011;18022;45.492;11.548;2023-11-19T02:17:51;23.25;;;16.33;;
31390;SDS011;18022;45.492;11.548;2023-11-19T02:20:17;24.10;;;15.65;;
31390;SDS011;18022;45.492;11.548;2023-11-19T02:25:13;20.08;;;14.30;;
31390;SDS011;18022;45.492;11.548;2023-11-19T02:30:39;22.17;;;14.63;;
31390;SDS011;18022;45.492;11.548;2023-11-19T02:33:05;21.45;;;14.15;;
31390;SDS011;18022;45.492;11.548;2023-11-19T02:35:31;19.75;;;14.50;;
31390;SDS011;18022;45.492;11.548;2023-11-19T02:37:58;25.25;;;15.23;;
31390;SDS011;18022;45.492;11.548;2023-11-19T02:40:28;19.48;;;14.35;;
31390;SDS011;18022;45.492;11.548;2023-11-19T02:42:54;20.48;;;14.70;;
31390;SDS011;18022;45.492;11.548;2023-11-19T02:45:23;20.83;;;14.25;;
31390;SDS011;18022;45.492;11.548;2023-11-19T02:47:50;20.25;;;14.55;;
31390;SDS011;18022;45.492;11.548;2023-11-19T02:50:20;18.63;;;13.98;;
31390;SDS011;18022;45.492;11.548;2023-11-19T02:52:52;24.00;;;15.30;;
31390;SDS011;18022;45.492;11.548;2023-11-19T02:55:21;19.67;;;14.02;;
31390;SDS011;18022;45.492;11.548;2023-11-19T02:57:49;18.80;;;13.90;;
31390;SDS011;18022;45.492;11.548;2023-11-19T03:00:15;21.90;;;14.63;;
31390;SDS011;18022;45.492;11.548;2023-11-19T03:02:48;20.55;;;13.48;;
31390;SDS011;18022;45.492;11.548;2023-11-19T03:05:23;20.42;;;14.52;;
31390;SDS011;18022;45.492;11.548;2023-11-19T03:07:50;23.90;;;14.43;;
31390;SDS011;18022;45.492;11.548;2023-11-19T03:10:16;18.58;;;13.65;;
31390;SDS011;18022;45.492;11.548;2023-11-19T03:12:43;18.70;;;13.65;;
31390;SDS011;18022;45.492;11.548;2023-11-19T03:17:38;20.58;;;13.73;;
31390;SDS011;18022;45.492;11.548;2023-11-19T03:20:05;18.38;;;13.70;;
31390;SDS011;18022;45.492;11.548;2023-11-19T03:22:34;19.15;;;14.20;;
31390;SDS011;18022;45.492;11.548;2023-11-19T03:25:02;17.17;;;13.73;;
31390;SDS011;18022;45.492;11.548;2023-11-19T03:27:27;16.00;;;12.40;;
31390;SDS011;18022;45.492;11.548;2023-11-19T03:29:53;18.15;;;13.00;;
31390;SDS011;18022;45.492;11.548;2023-11-19T03:32:19;17.90;;;13.93;;
31390;SDS011;18022;45.492;11.548;2023-11-19T03:34:45;18.33;;;12.55;;
31390;SDS011;18022;45.492;11.548;2023-11-19T03:37:10;19.02;;;13.38;;
31390;SDS011;18022;45.492;11.548;2023-11-19T03:39:36;17.30;;;13.15;;
31390;SDS011;18022;45.492;11.548;2023-11-19T03:42:02;17.48;;;12.55;;
31390;SDS011;18022;45.492;11.548;2023-11-19T03:44:28;19.30;;;13.68;;
31390;SDS011;18022;45.492;11.548;2023-11-19T03:46:54;18.17;;;12.40;;
31390;SDS011;18022;45.492;11.548;2023-11-19T03:49:19;14.43;;;11.50;;
31390;SDS011;18022;45.492;11.548;2023-11-19T03:51:45;15.90;;;11.27;;
31390;SDS011;18022;45.492;11.548;2023-11-19T03:54:11;14.48;;;10.73;;
31390;SDS011;18022;45.492;11.548;2023-11-19T03:56:37;14.70;;;11.70;;
31390;SDS011;18022;45.492;11.548;2023-11-19T03:59:02;17.45;;;12.35;;
31390;SDS011;18022;45.492;11.548;2023-11-19T04:01:28;17.98;;;12.32;;
31390;SDS011;18022;45.492;11.548;2023-11-19T04:03:54;14.80;;;11.65;;
31390;SDS011;18022;45.492;11.548;2023-11-19T04:06:21;15.77;;;11.40;;
31390;SDS011;18022;45.492;11.548;2023-11-19T04:08:46;16.45;;;10.85;;
31390;SDS011;18022;45.492;11.548;2023-11-19T04:11:12;14.20;;;10.80;;
31390;SDS011;18022;45.492;11.548;2023-11-19T04:13:38;13.43;;;10.80;;
31390;SDS011;18022;45.492;11.548;2023-11-19T04:16:04;15.48;;;11.27;;
31390;SDS011;18022;45.492;11.548;2023-11-19T04:18:29;16.83;;;10.55;;
31390;SDS011;18022;45.492;11.548;2023-11-19T04:20:57;18.80;;;11.32;;
31390;SDS011;18022;45.492;11.548;2023-11-19T04:23:22;14.30;;;10.95;;
31390;SDS011;18022;45.492;11.548;2023-11-19T04:25:50;13.73;;;10.48;;
31390;SDS011;18022;45.492;11.548;2023-11-19T04:28:15;14.43;;;10.70;;
31390;SDS011;18022;45.492;11.548;2023-11-19T04:30:41;15.65;;;10.98;;
31390;SDS011;18022;45.492;11.548;2023-11-19T04:33:07;17.02;;;11.52;;
31390;SDS011;18022;45.492;11.548;2023-11-19T04:35:32;14.68;;;10.88;;
31390;SDS011;18022;45.492;11.548;2023-11-19T04:37:58;14.02;;;10.98;;
31390;SDS011;18022;45.492;11.548;2023-11-19T04:40:24;14.45;;;11.55;;
31390;SDS011;18022;45.492;11.548;2023-11-19T04:42:50;14.85;;;11.15;;
31390;SDS011;18022;45.492;11.548;2023-11-19T04:45:16;14.70;;;10.45;;
31390;SDS011;18022;45.492;11.548;2023-11-19T04:47:42;13.32;;;10.55;;
31390;SDS011;18022;45.492;11.548;2023-11-19T04:50:08;12.82;;;10.40;;
31390;SDS011;18022;45.492;11.548;2023-11-19T04:52:37;16.23;;;11.07;;
31390;SDS011;18022;45.492;11.548;2023-11-19T04:55:05;12.75;;;10.30;;
31390;SDS011;18022;45.492;11.548;2023-11-19T04:57:31;13.82;;;10.27;;
31390;SDS011;18022;45.492;11.548;2023-11-19T04:59:57;13.10;;;10.25;;
31390;SDS011;18022;45.492;11.548;2023-11-19T05:02:24;12.23;;;9.25;;
31390;SDS011;18022;45.492;11.548;2023-11-19T05:04:49;11.80;;;9.57;;
31390;SDS011;18022;45.492;11.548;2023-11-19T05:07:15;12.93;;;10.13;;
31390;SDS011;18022;45.492;11.548;2023-11-19T05:09:41;15.45;;;10.95;;
31390;SDS011;18022;45.492;11.548;2023-11-19T05:12:08;15.98;;;11.27;;
31390;SDS011;18022;45.492;11.548;2023-11-19T05:14:37;15.38;;;10.57;;
31390;SDS011;18022;45.492;11.548;2023-11-19T05:17:02;15.25;;;10.63;;
31390;SDS011;18022;45.492;11.548;2023-11-19T05:19:28;14.00;;;10.88;;
31390;SDS011;18022;45.492;11.548;2023-11-19T05:21:54;14.20;;;10.13;;
31390;SDS011;18022;45.492;11.548;2023-11-19T05:24:20;16.75;;;11.07;;
31390;SDS011;18022;45.492;11.548;2023-11-19T05:26:45;14.65;;;10.82;;
31390;SDS011;18022;45.492;11.548;2023-11-19T05:29:12;15.77;;;10.95;;
31390;SDS011;18022;45.492;11.548;2023-11-19T05:31:38;13.70;;;11.02;;
31390;SDS011;18022;45.492;11.548;2023-11-19T05:34:03;14.35;;;10.52;;
31390;SDS011;18022;45.492;11.548;2023-11-19T05:36:29;13.65;;;10.65;;
31390;SDS011;18022;45.492;11.548;2023-11-19T05:38:55;16.58;;;11.07;;
31390;SDS011;18022;45.492;11.548;2023-11-19T05:41:21;14.80;;;10.65;;
31390;SDS011;18022;45.492;11.548;2023-11-19T05:43:46;13.13;;;10.52;;
31390;SDS011;18022;45.492;11.548;2023-11-19T05:46:12;14.52;;;10.82;;
31390;SDS011;18022;45.492;11.548;2023-11-19T05:48:38;13.60;;;10.25;;
31390;SDS011;18022;45.492;11.548;2023-11-19T05:51:04;14.88;;;11.48;;
31390;SDS011;18022;45.492;11.548;2023-11-19T05:53:31;13.35;;;10.43;;
31390;SDS011;18022;45.492;11.548;2023-11-19T05:55:57;14.93;;;10.57;;
31390;SDS011;18022;45.492;11.548;2023-11-19T05:58:23;13.63;;;10.45;;
31390;SDS011;18022;45.492;11.548;2023-11-19T06:00:57;12.95;;;9.90;;
31390;SDS011;18022;45.492;11.548;2023-11-19T06:03:23;15.32;;;10.55;;
31390;SDS011;18022;45.492;11.548;2023-11-19T06:05:49;18.17;;;11.48;;
31390;SDS011;18022;45.492;11.548;2023-11-19T06:08:15;15.05;;;11.23;;
31390;SDS011;18022;45.492;11.548;2023-11-19T06:10:42;17.50;;;11.93;;
31390;SDS011;18022;45.492;11.548;2023-11-19T06:13:11;15.77;;;11.98;;
31390;SDS011;18022;45.492;11.548;2023-11-19T06:15:37;15.68;;;11.70;;
31390;SDS011;18022;45.492;11.548;2023-11-19T06:18:03;14.13;;;10.88;;
31390;SDS011;18022;45.492;11.548;2023-11-19T06:20:32;14.25;;;11.05;;
31390;SDS011;18022;45.492;11.548;2023-11-19T06:22:58;14.73;;;11.13;;
31390;SDS011;18022;45.492;11.548;2023-11-19T06:25:24;16.63;;;10.77;;
31390;SDS011;18022;45.492;11.548;2023-11-19T06:27:50;15.40;;;10.85;;
31390;SDS011;18022;45.492;11.548;2023-11-19T06:30:17;14.35;;;10.45;;
31390;SDS011;18022;45.492;11.548;2023-11-19T06:32:43;14.88;;;10.55;;
31390;SDS011;18022;45.492;11.548;2023-11-19T06:35:08;13.80;;;10.15;;
31390;SDS011;18022;45.492;11.548;2023-11-19T06:37:35;14.50;;;10.43;;
31390;SDS011;18022;45.492;11.548;2023-11-19T06:40:01;14.02;;;10.27;;
31390;SDS011;18022;45.492;11.548;2023-11-19T06:42:30;16.27;;;10.23;;
31390;SDS011;18022;45.492;11.548;2023-11-19T06:44:56;12.40;;;9.60;;
31390;SDS011;18022;45.492;11.548;2023-11-19T06:47:25;15.90;;;11.55;;
31390;SDS011;18022;45.492;11.548;2023-11-19T06:49:52;15.85;;;11.32;;
31390;SDS011;18022;45.492;11.548;2023-11-19T06:52:18;16.02;;;11.55;;
31390;SDS011;18022;45.492;11.548;2023-11-19T06:54:44;16.73;;;12.20;;
31390;SDS011;18022;45.492;11.548;2023-11-19T06:57:10;18.35;;;12.82;;
31390;SDS011;18022;45.492;11.548;2023-11-19T06:59:37;15.98;;;12.35;;
31390;SDS011;18022;45.492;11.548;2023-11-19T07:02:03;17.85;;;12.23;;
31390;SDS011;18022;45.492;11.548;2023-11-19T07:04:29;14.32;;;11.02;;
31390;SDS011;18022;45.492;11.548;2023-11-19T07:06:56;15.30;;;11.45;;
31390;SDS011;18022;45.492;11.548;2023-11-19T07:09:22;15.98;;;11.50;;
31390;SDS011;18022;45.492;11.548;2023-11-19T07:11:48;16.10;;;11.68;;
31390;SDS011;18022;45.492;11.548;2023-11-19T07:14:16;19.10;;;11.65;;
31390;SDS011;18022;45.492;11.548;2023-11-19T07:16:43;16.40;;;11.35;;
31390;SDS011;18022;45.492;11.548;2023-11-19T07:19:09;15.70;;;11.20;;
31390;SDS011;18022;45.492;11.548;2023-11-19T07:21:35;13.85;;;11.20;;
31390;SDS011;18022;45.492;11.548;2023-11-19T07:24:04;14.95;;;11.15;;
31390;SDS011;18022;45.492;11.548;2023-11-19T07:26:30;16.13;;;11.98;;
31390;SDS011;18022;45.492;11.548;2023-11-19T07:28:56;16.73;;;12.38;;
31390;SDS011;18022;45.492;11.548;2023-11-19T07:31:23;17.77;;;12.27;;
31390;SDS011;18022;45.492;11.548;2023-11-19T07:33:49;18.73;;;12.65;;
31390;SDS011;18022;45.492;11.548;2023-11-19T07:36:15;17.52;;;11.43;;
31390;SDS011;18022;45.492;11.548;2023-11-19T07:38:41;17.38;;;11.10;;
31390;SDS011;18022;45.492;11.548;2023-11-19T07:41:07;16.10;;;11.82;;
31390;SDS011;18022;45.492;11.548;2023-11-19T07:43:38;16.27;;;12.90;;
31390;SDS011;18022;45.492;11.548;2023-11-19T07:46:10;22.30;;;14.55;;
31390;SDS011;18022;45.492;11.548;2023-11-19T07:48:37;22.75;;;15.30;;
31390;SDS011;18022;45.492;11.548;2023-11-19T07:51:03;22.98;;;15.60;;
31390;SDS011;18022;45.492;11.548;2023-11-19T07:53:29;22.50;;;15.77;;
31390;SDS011;18022;45.492;11.548;2023-11-19T07:55:55;24.38;;;16.73;;
31390;SDS011;18022;45.492;11.548;2023-11-19T07:58:21;23.23;;;16.23;;
31390;SDS011;18022;45.492;11.548;2023-11-19T08:00:46;23.88;;;16.20;;
31390;SDS011;18022;45.492;11.548;2023-11-19T08:03:12;20.75;;;14.85;;
31390;SDS011;18022;45.492;11.548;2023-11-19T08:05:38;23.63;;;15.57;;
31390;SDS011;18022;45.492;11.548;2023-11-19T08:08:04;22.88;;;15.50;;
31390;SDS011;18022;45.492;11.548;2023-11-19T08:10:30;23.35;;;15.57;;
31390;SDS011;18022;45.492;11.548;2023-11-19T08:15:23;23.27;;;15.60;;
31390;SDS011;18022;45.492;11.548;2023-11-19T08:17:49;21.90;;;16.30;;
31390;SDS011;18022;45.492;11.548;2023-11-19T08:20:15;25.17;;;17.90;;
31390;SDS011;18022;45.492;11.548;2023-11-19T08:22:40;31.52;;;21.48;;
31390;SDS011;18022;45.492;11.548;2023-11-19T08:25:06;32.22;;;21.33;;
31390;SDS011;18022;45.492;11.548;2023-11-19T08:27:33;26.73;;;19.20;;
31390;SDS011;18022;45.492;11.548;2023-11-19T08:29:59;24.23;;;17.02;;
31390;SDS011;18022;45.492;11.548;2023-11-19T08:32:25;27.08;;;17.50;;
31390;SDS011;18022;45.492;11.548;2023-11-19T08:34:52;23.37;;;17.10;;
31390;SDS011;18022;45.492;11.548;2023-11-19T08:37:18;57.65;;;33.75;;
31390;SDS011;18022;45.492;11.548;2023-11-19T08:39:49;37.00;;;24.42;;
31390;SDS011;18022;45.492;11.548;2023-11-19T08:42:18;37.58;;;26.02;;
31390;SDS011;18022;45.492;11.548;2023-11-19T08:44:48;34.55;;;22.23;;
31390;SDS011;18022;45.492;11.548;2023-11-19T08:47:15;24.85;;;17.08;;
31390;SDS011;18022;45.492;11.548;2023-11-19T08:49:43;24.60;;;16.98;;
31390;SDS011;18022;45.492;11.548;2023-11-19T08:52:09;27.65;;;17.23;;
31390;SDS011;18022;45.492;11.548;2023-11-19T08:54:35;28.40;;;17.98;;
31390;SDS011;18022;45.492;11.548;2023-11-19T08:57:01;25.20;;;17.70;;
31390;SDS011;18022;45.492;11.548;2023-11-19T08:59:28;26.63;;;18.23;;
31390;SDS011;18022;45.492;11.548;2023-11-19T09:01:54;25.60;;;17.73;;
31390;SDS011;18022;45.492;11.548;2023-11-19T09:04:20;30.65;;;20.52;;
31390;SDS011;18022;45.492;11.548;2023-11-19T09:06:47;25.52;;;18.02;;
31390;SDS011;18022;45.492;11.548;2023-11-19T09:09:13;29.15;;;18.70;;
31390;SDS011;18022;45.492;11.548;2023-11-19T09:11:39;25.73;;;18.90;;
31390;SDS011;18022;45.492;11.548;2023-11-19T09:14:05;26.13;;;17.88;;
31390;SDS011;18022;45.492;11.548;2023-11-19T09:16:31;27.08;;;19.35;;
31390;SDS011;18022;45.492;11.548;2023-11-19T09:18:57;32.53;;;20.83;;
31390;SDS011;18022;45.492;11.548;2023-11-19T09:21:24;31.77;;;21.83;;
31390;SDS011;18022;45.492;11.548;2023-11-19T09:23:50;30.98;;;19.95;;
31390;SDS011;18022;45.492;11.548;2023-11-19T09:26:16;25.92;;;18.80;;
31390;SDS011;18022;45.492;11.548;2023-11-19T09:28:42;22.83;;;17.20;;
31390;SDS011;18022;45.492;11.548;2023-11-19T09:31:17;23.77;;;15.40;;
31390;SDS011;18022;45.492;11.548;2023-11-19T09:33:43;19.80;;;13.82;;
31390;SDS011;18022;45.492;11.548;2023-11-19T09:36:11;18.13;;;13.80;;
31390;SDS011;18022;45.492;11.548;2023-11-19T09:38:39;18.02;;;13.63;;
31390;SDS011;18022;45.492;11.548;2023-11-19T09:41:05;19.30;;;14.25;;
31390;SDS011;18022;45.492;11.548;2023-11-19T09:43:34;17.95;;;13.40;;
31390;SDS011;18022;45.492;11.548;2023-11-19T09:46:06;19.85;;;14.10;;
31390;SDS011;18022;45.492;11.548;2023-11-19T09:48:37;15.95;;;12.45;;
31390;SDS011;18022;45.492;11.548;2023-11-19T09:51:06;17.20;;;12.20;;
31390;SDS011;18022;45.492;11.548;2023-11-19T09:53:33;16.95;;;12.65;;
31390;SDS011;18022;45.492;11.548;2023-11-19T09:56:03;19.65;;;12.80;;
31390;SDS011;18022;45.492;11.548;2023-11-19T09:58:30;16.77;;;12.02;;
31390;SDS011;18022;45.492;11.548;2023-11-19T10:00:59;18.98;;;12.25;;
31390;SDS011;18022;45.492;11.548;2023-11-19T10:03:32;19.23;;;13.15;;
31390;SDS011;18022;45.492;11.548;2023-11-19T10:06:08;16.85;;;11.40;;
31390;SDS011;18022;45.492;11.548;2023-11-19T10:08:38;16.00;;;10.75;;
31390;SDS011;18022;45.492;11.548;2023-11-19T10:11:05;15.60;;;10.10;;
31390;SDS011;18022;45.492;11.548;2023-11-19T10:13:31;14.18;;;9.52;;
31390;SDS011;18022;45.492;11.548;2023-11-19T10:16:09;15.00;;;9.95;;
31390;SDS011;18022;45.492;11.548;2023-11-19T10:18:37;14.63;;;10.15;;
31390;SDS011;18022;45.492;11.548;2023-11-19T10:21:04;12.77;;;8.77;;
31390;SDS011;18022;45.492;11.548;2023-11-19T10:23:31;15.95;;;10.05;;
31390;SDS011;18022;45.492;11.548;2023-11-19T10:26:03;16.27;;;10.95;;
31390;SDS011;18022;45.492;11.548;2023-11-19T10:28:50;20.13;;;13.02;;
31390;SDS011;18022;45.492;11.548;2023-11-19T10:31:16;17.95;;;11.25;;
31390;SDS011;18022;45.492;11.548;2023-11-19T10:33:43;12.60;;;10.07;;
31390;SDS011;18022;45.492;11.548;2023-11-19T10:36:10;13.93;;;10.77;;
31390;SDS011;18022;45.492;11.548;2023-11-19T10:38:40;14.00;;;9.73;;
31390;SDS011;18022;45.492;11.548;2023-11-19T10:41:06;13.85;;;10.02;;
31390;SDS011;18022;45.492;11.548;2023-11-19T10:43:42;20.98;;;12.65;;
31390;SDS011;18022;45.492;11.548;2023-11-19T10:46:11;22.98;;;12.82;;
31390;SDS011;18022;45.492;11.548;2023-11-19T10:48:39;16.10;;;10.98;;
31390;SDS011;18022;45.492;11.548;2023-11-19T10:51:05;15.75;;;10.57;;
31390;SDS011;18022;45.492;11.548;2023-11-19T10:53:37;19.80;;;9.90;;
31390;SDS011;18022;45.492;11.548;2023-11-19T10:56:08;27.02;;;14.60;;
31390;SDS011;18022;45.492;11.548;2023-11-19T10:58:36;17.02;;;10.63;;
31390;SDS011;18022;45.492;11.548;2023-11-19T11:04:14;14.25;;;10.05;;
31390;SDS011;18022;45.492;11.548;2023-11-19T11:06:44;12.82;;;10.13;;
31390;SDS011;18022;45.492;11.548;2023-11-19T11:09:10;15.40;;;10.55;;
31390;SDS011;18022;45.492;11.548;2023-11-19T11:11:40;15.18;;;10.80;;
31390;SDS011;18022;45.492;11.548;2023-11-19T11:14:09;16.02;;;10.63;;
31390;SDS011;18022;45.492;11.548;2023-11-19T11:16:41;16.92;;;11.68;;
31390;SDS011;18022;45.492;11.548;2023-11-19T11:19:08;16.00;;;11.75;;
31390;SDS011;18022;45.492;11.548;2023-11-19T11:21:35;14.15;;;10.68;;
31390;SDS011;18022;45.492;11.548;2023-11-19T11:32:04;27.83;;;18.17;;
31390;SDS011;18022;45.492;11.548;2023-11-19T11:34:48;17.40;;;11.10;;
31390;SDS011;18022;45.492;11.548;2023-11-19T11:40:01;15.32;;;11.10;;
31390;SDS011;18022;45.492;11.548;2023-11-19T11:42:31;18.75;;;11.68;;
31390;SDS011;18022;45.492;11.548;2023-11-19T11:45:07;18.67;;;11.15;;
31390;SDS011;18022;45.492;11.548;2023-11-19T11:50:10;27.40;;;19.95;;
31390;SDS011;18022;45.492;11.548;2023-11-19T11:55:37;16.60;;;12.30;;
31390;SDS011;18022;45.492;11.548;2023-11-19T11:58:17;19.52;;;14.00;;
31390;SDS011;18022;45.492;11.548;2023-11-19T12:00:56;15.32;;;11.73;;
31390;SDS011;18022;45.492;11.548;2023-11-19T12:03:23;18.55;;;13.75;;
31390;SDS011;18022;45.492;11.548;2023-11-19T12:05:49;17.83;;;12.95;;
31390;SDS011;18022;45.492;11.548;2023-11-19T12:08:15;18.30;;;12.10;;
31390;SDS011;18022;45.492;11.548;2023-11-19T12:10:46;19.38;;;11.88;;
31390;SDS011;18022;45.492;11.548;2023-11-19T12:13:17;19.92;;;12.73;;
31390;SDS011;18022;45.492;11.548;2023-11-19T12:18:22;18.63;;;11.95;;
31390;SDS011;18022;45.492;11.548;2023-11-19T12:20:49;15.70;;;10.90;;
31390;SDS011;18022;45.492;11.548;2023-11-19T12:23:15;17.95;;;12.50;;
31390;SDS011;18022;45.492;11.548;2023-11-19T12:25:41;18.10;;;12.98;;
31390;SDS011;18022;45.492;11.548;2023-11-19T12:28:11;15.00;;;11.60;;
31390;SDS011;18022;45.492;11.548;2023-11-19T12:30:38;19.30;;;11.95;;
31390;SDS011;18022;45.492;11.548;2023-11-19T12:33:07;18.25;;;12.10;;
31390;SDS011;18022;45.492;11.548;2023-11-19T12:35:44;21.98;;;13.82;;
31390;SDS011;18022;45.492;11.548;2023-11-19T12:38:25;19.20;;;12.48;;
31390;SDS011;18022;45.492;11.548;2023-11-19T12:41:04;19.48;;;13.30;;
31390;SDS011;18022;45.492;11.548;2023-11-19T12:43:36;17.63;;;12.52;;
31390;SDS011;18022;45.492;11.548;2023-11-19T12:46:16;19.38;;;13.57;;
31390;SDS011;18022;45.492;11.548;2023-11-19T12:48:44;17.30;;;12.93;;
31390;SDS011;18022;45.492;11.548;2023-11-19T12:51:11;17.98;;;13.15;;
31390;SDS011;18022;45.492;11.548;2023-11-19T12:53:49;21.30;;;12.73;;
31390;SDS011;18022;45.492;11.548;2023-11-19T12:56:19;18.08;;;13.57;;
31390;SDS011;18022;45.492;11.548;2023-11-19T12:58:46;19.27;;;13.63;;
31390;SDS011;18022;45.492;11.548;2023-11-19T13:01:15;21.70;;;14.32;;
31390;SDS011;18022;45.492;11.548;2023-11-19T13:03:42;20.63;;;14.35;;
31390;SDS011;18022;45.492;11.548;2023-11-19T13:06:09;21.55;;;14.90;;
31390;SDS011;18022;45.492;11.548;2023-11-19T13:08:38;21.48;;;14.45;;
31390;SDS011;18022;45.492;11.548;2023-11-19T13:11:04;20.67;;;14.10;;
31390;SDS011;18022;45.492;11.548;2023-11-19T13:13:31;18.02;;;13.32;;
31390;SDS011;18022;45.492;11.548;2023-11-19T13:16:03;21.35;;;14.70;;
31390;SDS011;18022;45.492;11.548;2023-11-19T13:18:30;21.13;;;14.32;;
31390;SDS011;18022;45.492;11.548;2023-11-19T13:20:56;22.00;;;13.52;;
31390;SDS011;18022;45.492;11.548;2023-11-19T13:23:22;20.23;;;14.10;;
31390;SDS011;18022;45.492;11.548;2023-11-19T13:25:48;18.25;;;14.23;;
31390;SDS011;18022;45.492;11.548;2023-11-19T13:28:14;19.15;;;14.10;;
31390;SDS011;18022;45.492;11.548;2023-11-19T13:30:39;19.02;;;13.77;;
31390;SDS011;18022;45.492;11.548;2023-11-19T13:33:05;22.63;;;16.15;;
31390;SDS011;18022;45.492;11.548;2023-11-19T13:35:31;19.95;;;14.77;;
31390;SDS011;18022;45.492;11.548;2023-11-19T13:37:57;20.45;;;14.02;;
31390;SDS011;18022;45.492;11.548;2023-11-19T13:40:23;21.58;;;13.80;;
31390;SDS011;18022;45.492;11.548;2023-11-19T13:42:49;18.35;;;11.55;;
31390;SDS011;18022;45.492;11.548;2023-11-19T13:45:15;23.92;;;14.80;;
31390;SDS011;18022;45.492;11.548;2023-11-19T13:47:43;19.98;;;13.57;;
31390;SDS011;18022;45.492;11.548;2023-11-19T13:50:10;21.87;;;14.63;;
31390;SDS011;18022;45.492;11.548;2023-11-19T13:52:37;19.17;;;14.13;;
31390;SDS011;18022;45.492;11.548;2023-11-19T13:55:05;19.58;;;13.70;;
31390;SDS011;18022;45.492;11.548;2023-11-19T13:57:37;19.58;;;14.15;;
31390;SDS011;18022;45.492;11.548;2023-11-19T14:00:05;20.50;;;15.40;;
31390;SDS011;18022;45.492;11.548;2023-11-19T14:02:41;21.42;;;15.07;;
31390;SDS011;18022;45.492;11.548;2023-11-19T14:05:11;21.23;;;14.40;;
31390;SDS011;18022;45.492;11.548;2023-11-19T14:07:38;20.10;;;15.35;;
31390;SDS011;18022;45.492;11.548;2023-11-19T14:10:07;22.52;;;15.65;;
31390;SDS011;18022;45.492;11.548;2023-11-19T14:12:39;18.42;;;14.30;;
31390;SDS011;18022;45.492;11.548;2023-11-19T14:15:06;21.50;;;15.02;;
31390;SDS011;18022;45.492;11.548;2023-11-19T14:17:34;22.00;;;16.30;;
31390;SDS011;18022;45.492;11.548;2023-11-19T14:20:00;23.98;;;15.55;;
31390;SDS011;18022;45.492;11.548;2023-11-19T14:22:26;22.58;;;16.15;;
31390;SDS011;18022;45.492;11.548;2023-11-19T14:24:52;23.25;;;16.55;;
31390;SDS011;18022;45.492;11.548;2023-11-19T14:27:17;25.65;;;17.30;;
31390;SDS011;18022;45.492;11.548;2023-11-19T14:29:43;21.92;;;16.38;;
31390;SDS011;18022;45.492;11.548;2023-11-19T14:32:10;23.42;;;17.40;;
31390;SDS011;18022;45.492;11.548;2023-11-19T14:34:36;23.33;;;17.55;;
31390;SDS011;18022;45.492;11.548;2023-11-19T14:37:03;22.83;;;16.20;;
31390;SDS011;18022;45.492;11.548;2023-11-19T14:39:29;23.15;;;17.38;;
31390;SDS011;18022;45.492;11.548;2023-11-19T14:41:56;31.80;;;22.47;;